Rakitna

Učna pot


Verjetnost toče več informacij Hail probability


Požarna ogroženost več informacij Fire risk


Moja kamera več informacij My webcam


Rakitna DRSI več informacij Rakitna DRSI


Obiščite še:

Template documentacija
in prenos

in še drugo stran



Posebna pozornost v zvezi z vremenskimi dogajanji ni potrebna.    Posebna pozornost v zvezi z vremenskimi dogajanji ni potrebna.

METAR v bližini

   
LJLJ - Ljubljana
Posodobljeno: 20-09-2017 11:00
pretežno oblačno  
pretežno oblačno  
   Veter: VJV 7.4 km/h
Veter: VJV 7.4 km/h
Temperatura: 10°C
Občutek mraza: 9°C
Točka rosišča: 8°C
Vlažnost: 88%
Zračni tlak: 1014 hPa
Oblaki: pretežno oblačno
Vidljivost: več kot 10 km
Podrobnosti o oblakih: nekaj oblakov 700 ft,
pretežno oblačno 10000 ft
LJLJ 200900Z 12004KT 080V180 9999 FEW007 BKN100 10/08 Q1014 NOSIG
LJCE - Cerklje ob Krki
Posodobljeno: 20-09-2017 11:00
pretežno oblačno  
pretežno oblačno  
   Veter: različen 1.9 km/h
Veter: različen 1.9 km/h
Temperatura: 12°C
Točka rosišča: 10°C
Vlažnost: 88%
Zračni tlak: 1015 hPa
Oblaki: pretežno oblačno
Vidljivost: več kot 10 km
Podrobnosti o oblakih: nekaj oblakov 1000 ft,
pretežno oblačno 7500 ft
LJCE 200900Z VRB01KT 9999 FEW010 BKN075 12/10 Q1015 RMK BLU
LJMB - Maribor
Posodobljeno: 20-09-2017 11:00
jasno  
jasno  
   Veter: Sever 18.5 km/h
Veter: Sever 18.5 km/h
Temperatura: 12°C
Točka rosišča: 6°C
Vlažnost: 67%
Zračni tlak: 1015 hPa
Vidljivost: več kot 10 km
Podrobnosti o oblakih: jasno
LJMB 200900Z 35010KT CAVOK 12/06 Q1015
LJPZ - Portorož
Posodobljeno: 20-09-2017 11:00
jasno  
jasno  
   Veter: različen 1.9 km/h
Veter: različen 1.9 km/h
Temperatura: 16°C
Točka rosišča: 11°C
Vlažnost: 72%
Zračni tlak: 1014 hPa
Vidljivost: več kot 10 km
Podrobnosti o oblakih: jasno
LJPZ 200900Z VRB01KT CAVOK 16/11 Q1014
LDRI - Rijeka, Airport, Croatia
Posodobljeno: 20-09-2017 11:00
nekaj oblakov  
nekaj oblakov  
   Veter: SSZ 16.7 km/h
Veter: SSZ 16.7 km/h
Temperatura: 18°C
Točka rosišča: 4°C
Vlažnost: 40%
Zračni tlak: 1013 hPa
Oblaki: nekaj oblakov
Vidljivost: več kot 10 km
Podrobnosti o oblakih: nekaj oblakov 6000 ft
LDRI 200900Z 34009KT 290V030 9999 FEW060 18/04 Q1013
LOWK - Klagenfurt, Airport, Avstia
Posodobljeno: 20-09-2017 10:50
pretežno oblačno  
pretežno oblačno  
   Veter: ZSZ 7.4 km/h
Veter: ZSZ 7.4 km/h
Temperatura: 10°C
Občutek mraza: 9°C
Točka rosišča: 7°C
Vlažnost: 82%
Zračni tlak: 1017 hPa
Oblaki: pretežno oblačno
Vidljivost: več kot 10 km
Podrobnosti o oblakih: nekaj oblakov 800 ft,
delno oblačno 7000 ft,
pretežno oblačno 10000 ft
LOWK 200850Z 30004KT 280V340 9999 FEW008 SCT070 BKN100 10/07 Q1017 NOSIG

Script developed by  Saratoga-weather.org Adapted for the template by  Weerstation Leuven

Vremenski podatki so objavljeni na:

Weather Underground

WeatherlinkIP

MapView

Geostik

Slovenia weather network

Oprema, ki se uporablja:

Vremenska postaja
Davis VP2+ ventilirana

Vremenski program
WeatherLink

Vremenski server
Shuttle XS35V4

Ponudnik
Vremensko društvo ZEVS

Davis VP2+ ventilirana

WeatherLink

Shuttle XS35V4

Vremensko društvo ZEVS

Meteorološki podatki vremenske postaje Rakitna so neuradni, meteorološka postaja sama pa ni del državne mreže Agencije Republike Slovenije za okolje (ARSO),
je pa vključena v Vremensko društvo ZEVS. Prikazani podatki so izmerjeni točno, vendar so zgolj informativni in nimajo značaja uradnega podatka.

Podatke meri vremenska postaja "Davis VP2+ ventilirana" od 05.03.2011 dalje.

Opozarjamo, da ne prevzamemo odgovornosti za morebitno nastalo škodo, ki bi nastala zaradi odločitve, sprejete na osnovi teh podatkov!